sensor_id;sensor_type;location;lat;lon;timestamp;pressure;altitude;pressure_sealevel;temperature;humidity
60854;BME280;48554;50.766;2.900;2022-08-03T00:02:04;101019.44;;;24.96;53.00
60854;BME280;48554;50.766;2.900;2022-08-03T00:04:24;101012.91;;;24.97;52.91
60854;BME280;48554;50.766;2.900;2022-08-03T00:06:44;101017.81;;;24.95;53.20
60854;BME280;48554;50.766;2.900;2022-08-03T00:09:05;101011.81;;;24.98;53.04
60854;BME280;48554;50.766;2.900;2022-08-03T00:11:25;101015.91;;;24.95;52.92
60854;BME280;48554;50.766;2.900;2022-08-03T00:13:45;101017.81;;;24.95;53.21
60854;BME280;48554;50.766;2.900;2022-08-03T00:16:05;101014.59;;;24.93;53.14
60854;BME280;48554;50.766;2.900;2022-08-03T00:18:25;101019.44;;;24.96;53.11
60854;BME280;48554;50.766;2.900;2022-08-03T00:20:46;101009.75;;;24.90;52.98
60854;BME280;48554;50.766;2.900;2022-08-03T00:23:06;101004.34;;;24.90;53.11
60854;BME280;48554;50.766;2.900;2022-08-03T00:25:26;101000.81;;;24.89;53.02
60854;BME280;48554;50.766;2.900;2022-08-03T00:27:46;101001.13;;;24.88;53.17
60854;BME280;48554;50.766;2.900;2022-08-03T00:30:06;101007.63;;;24.87;53.04
60854;BME280;48554;50.766;2.900;2022-08-03T00:32:27;101004.91;;;24.87;53.32
60854;BME280;48554;50.766;2.900;2022-08-03T00:34:47;101005.50;;;24.84;53.08
60854;BME280;48554;50.766;2.900;2022-08-03T00:37:07;101006.00;;;24.86;53.17
60854;BME280;48554;50.766;2.900;2022-08-03T00:39:27;100996.25;;;24.85;53.11
60854;BME280;48554;50.766;2.900;2022-08-03T00:41:47;100992.16;;;24.87;53.14
60854;BME280;48554;50.766;2.900;2022-08-03T00:44:07;101000.59;;;24.86;53.00
60854;BME280;48554;50.766;2.900;2022-08-03T00:46:27;100990.84;;;24.85;52.95
60854;BME280;48554;50.766;2.900;2022-08-03T00:48:48;100997.88;;;24.86;52.85
60854;BME280;48554;50.766;2.900;2022-08-03T00:51:08;100989.22;;;24.84;53.27
60854;BME280;48554;50.766;2.900;2022-08-03T00:53:29;100986.81;;;24.82;53.18
60854;BME280;48554;50.766;2.900;2022-08-03T00:55:49;100983.28;;;24.82;53.01
60854;BME280;48554;50.766;2.900;2022-08-03T00:58:10;100971.38;;;24.83;53.00
60854;BME280;48554;50.766;2.900;2022-08-03T01:00:30;100980.59;;;24.82;53.18
60854;BME280;48554;50.766;2.900;2022-08-03T01:02:51;100975.75;;;24.78;53.34
60854;BME280;48554;50.766;2.900;2022-08-03T01:05:11;100971.13;;;24.79;52.96
60854;BME280;48554;50.766;2.900;2022-08-03T01:14:41;100966.50;;;24.80;52.98
60854;BME280;48554;50.766;2.900;2022-08-03T01:19:39;100959.78;;;24.77;53.07
60854;BME280;48554;50.766;2.900;2022-08-03T01:22:15;100961.41;;;24.78;53.02
60854;BME280;48554;50.766;2.900;2022-08-03T01:27:20;100957.31;;;24.81;52.93
60854;BME280;48554;50.766;2.900;2022-08-03T01:29:49;100968.34;;;24.84;52.95
60854;BME280;48554;50.766;2.900;2022-08-03T01:32:11;100958.31;;;24.85;52.66
60854;BME280;48554;50.766;2.900;2022-08-03T01:34:33;100962.13;;;24.84;52.66
60854;BME280;48554;50.766;2.900;2022-08-03T01:36:55;100960.00;;;24.81;53.01
60854;BME280;48554;50.766;2.900;2022-08-03T01:39:18;100961.69;;;24.76;52.96
60854;BME280;48554;50.766;2.900;2022-08-03T01:41:47;100958.44;;;24.74;53.14
60854;BME280;48554;50.766;2.900;2022-08-03T01:44:08;100959.50;;;24.78;52.88
60854;BME280;48554;50.766;2.900;2022-08-03T01:46:30;100957.38;;;24.75;52.82
60854;BME280;48554;50.766;2.900;2022-08-03T01:48:51;100957.91;;;24.77;53.05
60854;BME280;48554;50.766;2.900;2022-08-03T01:51:12;100962.47;;;24.77;52.76
60854;BME280;48554;50.766;2.900;2022-08-03T01:53:34;100958.38;;;24.80;52.88
60854;BME280;48554;50.766;2.900;2022-08-03T01:55:55;100954.88;;;24.79;52.91
60854;BME280;48554;50.766;2.900;2022-08-03T01:58:16;100957.91;;;24.77;52.90
60854;BME280;48554;50.766;2.900;2022-08-03T02:00:38;100950.84;;;24.76;52.89
60854;BME280;48554;50.766;2.900;2022-08-03T02:03:00;100951.63;;;24.77;52.68
60854;BME280;48554;50.766;2.900;2022-08-03T02:05:20;100959.03;;;24.71;52.79
60854;BME280;48554;50.766;2.900;2022-08-03T02:07:41;100959.03;;;24.71;52.71
60854;BME280;48554;50.766;2.900;2022-08-03T02:10:03;100953.63;;;24.71;52.75
60854;BME280;48554;50.766;2.900;2022-08-03T02:12:24;100952.31;;;24.69;53.00
60854;BME280;48554;50.766;2.900;2022-08-03T02:14:45;100942.56;;;24.68;53.12
60854;BME280;48554;50.766;2.900;2022-08-03T02:17:07;100943.38;;;24.68;52.90
60854;BME280;48554;50.766;2.900;2022-08-03T02:19:28;100942.34;;;24.64;52.96
60854;BME280;48554;50.766;2.900;2022-08-03T02:21:49;100947.16;;;24.67;52.98
60854;BME280;48554;50.766;2.900;2022-08-03T02:24:10;100942.56;;;24.68;52.77
60854;BME280;48554;50.766;2.900;2022-08-03T02:26:31;100948.56;;;24.65;52.95
60854;BME280;48554;50.766;2.900;2022-08-03T02:28:51;100947.75;;;24.64;53.01
60854;BME280;48554;50.766;2.900;2022-08-03T02:31:18;100945.03;;;24.64;52.73
60854;BME280;48554;50.766;2.900;2022-08-03T02:33:43;100945.09;;;24.59;53.28
60854;BME280;48554;50.766;2.900;2022-08-03T02:36:05;100939.09;;;24.62;53.23
60854;BME280;48554;50.766;2.900;2022-08-03T02:38:27;100947.81;;;24.59;52.85
60854;BME280;48554;50.766;2.900;2022-08-03T02:40:50;100946.22;;;24.58;53.27
60854;BME280;48554;50.766;2.900;2022-08-03T02:43:11;100950.06;;;24.52;53.42
60854;BME280;48554;50.766;2.900;2022-08-03T02:45:37;100948.41;;;24.56;53.12
60854;BME280;48554;50.766;2.900;2022-08-03T02:48:02;100947.09;;;24.53;53.17
60854;BME280;48554;50.766;2.900;2022-08-03T02:50:22;100950.28;;;24.55;53.22
60854;BME280;48554;50.766;2.900;2022-08-03T02:52:44;100954.34;;;24.58;53.04
60854;BME280;48554;50.766;2.900;2022-08-03T02:55:06;100941.66;;;24.53;53.34
60854;BME280;48554;50.766;2.900;2022-08-03T02:57:29;100944.59;;;24.57;53.03
60854;BME280;48554;50.766;2.900;2022-08-03T02:59:50;100938.09;;;24.58;52.91
60854;BME280;48554;50.766;2.900;2022-08-03T03:02:10;100941.16;;;24.51;53.17
60854;BME280;48554;50.766;2.900;2022-08-03T03:04:31;100943.59;;;24.48;53.13
60854;BME280;48554;50.766;2.900;2022-08-03T03:06:51;100943.06;;;24.51;53.28
60854;BME280;48554;50.766;2.900;2022-08-03T03:09:11;100936.25;;;24.53;53.22
60854;BME280;48554;50.766;2.900;2022-08-03T03:11:32;100933.22;;;24.55;53.09
60854;BME280;48554;50.766;2.900;2022-08-03T03:13:55;100931.63;;;24.54;53.21
60854;BME280;48554;50.766;2.900;2022-08-03T03:16:15;100937.06;;;24.54;52.93
60854;BME280;48554;50.766;2.900;2022-08-03T03:18:37;100931.38;;;24.50;53.25
60854;BME280;48554;50.766;2.900;2022-08-03T03:20:59;100927.34;;;24.48;52.88
60854;BME280;48554;50.766;2.900;2022-08-03T03:23:20;100929.00;;;24.49;53.10
60854;BME280;48554;50.766;2.900;2022-08-03T03:25:41;100928.47;;;24.47;53.21
60854;BME280;48554;50.766;2.900;2022-08-03T03:28:02;100929.53;;;24.46;53.14
60854;BME280;48554;50.766;2.900;2022-08-03T03:30:23;100929.00;;;24.49;53.00
60854;BME280;48554;50.766;2.900;2022-08-03T03:32:43;100929.00;;;24.49;53.13
60854;BME280;48554;50.766;2.900;2022-08-03T03:35:04;100931.19;;;24.47;53.05
60854;BME280;48554;50.766;2.900;2022-08-03T03:37:27;100927.88;;;24.50;53.01
60854;BME280;48554;50.766;2.900;2022-08-03T03:39:47;100930.38;;;24.46;52.93
60854;BME280;48554;50.766;2.900;2022-08-03T03:42:08;100924.13;;;24.46;52.89
60854;BME280;48554;50.766;2.900;2022-08-03T03:44:28;100921.97;;;24.43;52.88
60854;BME280;48554;50.766;2.900;2022-08-03T03:46:48;100933.34;;;24.45;52.81
60854;BME280;48554;50.766;2.900;2022-08-03T03:49:09;100924.41;;;24.44;52.92
60854;BME280;48554;50.766;2.900;2022-08-03T03:51:29;100930.09;;;24.43;52.95
60854;BME280;48554;50.766;2.900;2022-08-03T03:53:53;100928.50;;;24.42;53.09
60854;BME280;48554;50.766;2.900;2022-08-03T03:56:13;100931.22;;;24.42;52.82
60854;BME280;48554;50.766;2.900;2022-08-03T03:58:33;100930.69;;;24.40;52.98
60854;BME280;48554;50.766;2.900;2022-08-03T04:00:53;100929.09;;;24.39;52.88
60854;BME280;48554;50.766;2.900;2022-08-03T04:03:13;100927.47;;;24.38;52.88
60854;BME280;48554;50.766;2.900;2022-08-03T04:05:34;100925.91;;;24.31;53.19
60854;BME280;48554;50.766;2.900;2022-08-03T04:07:58;100937.81;;;24.30;53.08
60854;BME280;48554;50.766;2.900;2022-08-03T04:10:19;100937.25;;;24.33;53.15
60854;BME280;48554;50.766;2.900;2022-08-03T04:12:40;100938.28;;;24.38;52.82
60854;BME280;48554;50.766;2.900;2022-08-03T04:15:01;100937.25;;;24.33;53.02
60854;BME280;48554;50.766;2.900;2022-08-03T04:17:22;100937.25;;;24.33;52.99
60854;BME280;48554;50.766;2.900;2022-08-03T04:19:46;100936.16;;;24.34;52.79
60854;BME280;48554;50.766;2.900;2022-08-03T04:22:12;100928.63;;;24.31;52.97
60854;BME280;48554;50.766;2.900;2022-08-03T04:24:38;100935.66;;;24.32;52.99
60854;BME280;48554;50.766;2.900;2022-08-03T04:26:59;100938.41;;;24.27;53.03
60854;BME280;48554;50.766;2.900;2022-08-03T04:29:21;100939.47;;;24.31;53.19
60854;BME280;48554;50.766;2.900;2022-08-03T04:31:44;100940.53;;;24.30;53.37
60854;BME280;48554;50.766;2.900;2022-08-03T04:34:05;100936.22;;;24.29;53.37
60854;BME280;48554;50.766;2.900;2022-08-03T04:36:27;100936.50;;;24.28;53.24
60854;BME280;48554;50.766;2.900;2022-08-03T04:41:10;100941.19;;;24.22;53.16
60854;BME280;48554;50.766;2.900;2022-08-03T04:43:31;100942.78;;;24.23;53.06
60854;BME280;48554;50.766;2.900;2022-08-03T04:45:52;100942.22;;;24.26;53.20
60854;BME280;48554;50.766;2.900;2022-08-03T04:48:13;100930.88;;;24.24;53.04
60854;BME280;48554;50.766;2.900;2022-08-03T04:50:33;100934.38;;;24.25;53.12
60854;BME280;48554;50.766;2.900;2022-08-03T04:52:54;100935.78;;;24.22;53.17
60854;BME280;48554;50.766;2.900;2022-08-03T04:55:35;100935.19;;;24.25;53.25
60854;BME280;48554;50.766;2.900;2022-08-03T04:57:55;100940.59;;;24.25;53.28
60854;BME280;48554;50.766;2.900;2022-08-03T05:00:15;100937.94;;;24.20;53.25
60854;BME280;48554;50.766;2.900;2022-08-03T05:02:35;100947.41;;;24.23;53.32
60854;BME280;48554;50.766;2.900;2022-08-03T05:04:56;100946.00;;;24.25;53.15
60854;BME280;48554;50.766;2.900;2022-08-03T05:07:16;100946.59;;;24.22;53.43
60854;BME280;48554;50.766;2.900;2022-08-03T05:09:37;100955.56;;;24.18;53.20
60854;BME280;48554;50.766;2.900;2022-08-03T05:11:57;100955.31;;;24.19;53.39
60854;BME280;48554;50.766;2.900;2022-08-03T05:14:17;100955.25;;;24.24;53.74
60854;BME280;48554;50.766;2.900;2022-08-03T05:16:37;100957.88;;;24.29;53.72
60854;BME280;48554;50.766;2.900;2022-08-03T05:18:57;100950.84;;;24.28;53.36
60854;BME280;48554;50.766;2.900;2022-08-03T05:21:17;100964.16;;;24.25;53.81
60854;BME280;48554;50.766;2.900;2022-08-03T05:23:37;100973.66;;;24.22;54.07
60854;BME280;48554;50.766;2.900;2022-08-03T05:25:58;100971.69;;;24.28;53.57
60854;BME280;48554;50.766;2.900;2022-08-03T05:28:18;100974.94;;;24.30;53.79
60854;BME280;48554;50.766;2.900;2022-08-03T05:30:38;100970.84;;;24.32;53.81
60854;BME280;48554;50.766;2.900;2022-08-03T05:32:58;100968.13;;;24.32;53.99
60854;BME280;48554;50.766;2.900;2022-08-03T05:35:18;100977.38;;;24.31;54.04
60854;BME280;48554;50.766;2.900;2022-08-03T05:37:38;100985.50;;;24.31;53.67
60854;BME280;48554;50.766;2.900;2022-08-03T05:39:59;100981.16;;;24.30;53.97
60854;BME280;48554;50.766;2.900;2022-08-03T05:42:19;100976.53;;;24.31;53.81
60854;BME280;48554;50.766;2.900;2022-08-03T05:44:39;100983.84;;;24.30;53.76
60854;BME280;48554;50.766;2.900;2022-08-03T05:46:59;100986.00;;;24.33;53.65
60854;BME280;48554;50.766;2.900;2022-08-03T05:49:19;100983.00;;;24.35;53.63
60854;BME280;48554;50.766;2.900;2022-08-03T05:51:39;100984.59;;;24.36;53.82
60854;BME280;48554;50.766;2.900;2022-08-03T05:53:59;100989.75;;;24.38;54.63
60854;BME280;48554;50.766;2.900;2022-08-03T05:56:23;100987.84;;;24.38;53.99
60854;BME280;48554;50.766;2.900;2022-08-03T05:58:44;100995.69;;;24.40;54.75
60854;BME280;48554;50.766;2.900;2022-08-03T06:01:04;100995.09;;;24.43;54.22
60854;BME280;48554;50.766;2.900;2022-08-03T06:03:24;100994.56;;;24.41;54.23
60854;BME280;48554;50.766;2.900;2022-08-03T06:05:45;100996.47;;;24.40;54.82
60854;BME280;48554;50.766;2.900;2022-08-03T06:08:05;100998.13;;;24.41;55.57
60854;BME280;48554;50.766;2.900;2022-08-03T06:10:25;101001.91;;;24.40;55.71
60854;BME280;48554;50.766;2.900;2022-08-03T06:12:45;100996.72;;;24.44;55.49
60854;BME280;48554;50.766;2.900;2022-08-03T06:15:06;100994.03;;;24.44;55.85
60854;BME280;48554;50.766;2.900;2022-08-03T06:17:26;100994.31;;;24.42;55.95
60854;BME280;48554;50.766;2.900;2022-08-03T06:19:46;100998.34;;;24.45;56.11
60854;BME280;48554;50.766;2.900;2022-08-03T06:22:06;100999.44;;;24.44;56.25
60854;BME280;48554;50.766;2.900;2022-08-03T06:24:26;100994.28;;;24.47;55.85
60854;BME280;48554;50.766;2.900;2022-08-03T06:26:46;100997.25;;;24.46;55.80
60854;BME280;48554;50.766;2.900;2022-08-03T06:29:06;101002.69;;;24.41;55.92
60854;BME280;48554;50.766;2.900;2022-08-03T06:31:27;100997.28;;;24.41;55.73
60854;BME280;48554;50.766;2.900;2022-08-03T06:33:47;100998.34;;;24.45;55.61
60854;BME280;48554;50.766;2.900;2022-08-03T06:36:07;101001.31;;;24.43;55.79
60854;BME280;48554;50.766;2.900;2022-08-03T06:38:27;100994.88;;;24.39;55.78
60854;BME280;48554;50.766;2.900;2022-08-03T06:40:47;100997.53;;;24.44;55.73
60854;BME280;48554;50.766;2.900;2022-08-03T06:43:07;101011.06;;;24.44;55.63
60854;BME280;48554;50.766;2.900;2022-08-03T06:45:28;101005.94;;;24.43;55.61
60854;BME280;48554;50.766;2.900;2022-08-03T06:47:58;101002.44;;;24.42;55.59
60854;BME280;48554;50.766;2.900;2022-08-03T06:50:18;101005.41;;;24.41;55.79
60854;BME280;48554;50.766;2.900;2022-08-03T06:52:38;100997.53;;;24.44;55.59
60854;BME280;48554;50.766;2.900;2022-08-03T06:54:58;101002.41;;;24.47;55.61
60854;BME280;48554;50.766;2.900;2022-08-03T06:57:19;100995.63;;;24.45;55.49
60854;BME280;48554;50.766;2.900;2022-08-03T06:59:39;100998.13;;;24.41;55.84
60854;BME280;48554;50.766;2.900;2022-08-03T07:01:59;100995.09;;;24.43;55.51
60854;BME280;48554;50.766;2.900;2022-08-03T07:04:19;101005.38;;;24.46;55.49
60854;BME280;48554;50.766;2.900;2022-08-03T07:06:39;101001.03;;;24.45;55.43
60854;BME280;48554;50.766;2.900;2022-08-03T07:08:59;101006.22;;;24.46;55.74
60854;BME280;48554;50.766;2.900;2022-08-03T07:11:20;101003.19;;;24.48;55.28
60854;BME280;48554;50.766;2.900;2022-08-03T07:13:40;101003.19;;;24.48;55.52
60854;BME280;48554;50.766;2.900;2022-08-03T07:16:00;100994.00;;;24.49;55.58
60854;BME280;48554;50.766;2.900;2022-08-03T07:18:20;101009.44;;;24.48;55.77
60854;BME280;48554;50.766;2.900;2022-08-03T07:20:40;101009.13;;;24.50;55.65
60854;BME280;48554;50.766;2.900;2022-08-03T07:23:00;101008.00;;;24.56;55.22
60854;BME280;48554;50.766;2.900;2022-08-03T07:25:20;101014.50;;;24.55;55.08
60854;BME280;48554;50.766;2.900;2022-08-03T07:27:44;101005.56;;;24.54;55.00
60854;BME280;48554;50.766;2.900;2022-08-03T07:30:04;101008.56;;;24.53;55.43
60854;BME280;48554;50.766;2.900;2022-08-03T07:32:26;101006.38;;;24.55;54.99
60854;BME280;48554;50.766;2.900;2022-08-03T07:34:46;101005.56;;;24.54;55.05
60854;BME280;48554;50.766;2.900;2022-08-03T07:37:06;100999.03;;;24.55;55.21
60854;BME280;48554;50.766;2.900;2022-08-03T07:39:26;101011.22;;;24.58;55.16
60854;BME280;48554;50.766;2.900;2022-08-03T07:41:46;101019.84;;;24.60;54.75
60854;BME280;48554;50.766;2.900;2022-08-03T07:44:07;101006.31;;;24.60;54.85
60854;BME280;48554;50.766;2.900;2022-08-03T07:46:27;101013.88;;;24.63;54.71
60854;BME280;48554;50.766;2.900;2022-08-03T07:48:47;101012.78;;;24.64;54.83
60854;BME280;48554;50.766;2.900;2022-08-03T07:51:07;101007.34;;;24.64;54.72
60854;BME280;48554;50.766;2.900;2022-08-03T07:53:27;101012.19;;;24.67;54.52
60854;BME280;48554;50.766;2.900;2022-08-03T07:55:47;101010.00;;;24.69;54.54
60854;BME280;48554;50.766;2.900;2022-08-03T07:58:11;101010.78;;;24.70;54.66
60854;BME280;48554;50.766;2.900;2022-08-03T08:00:31;101015.41;;;24.69;54.68
60854;BME280;48554;50.766;2.900;2022-08-03T08:02:51;101011.63;;;24.70;54.70
60854;BME280;48554;50.766;2.900;2022-08-03T08:05:11;101011.03;;;24.73;54.33
60854;BME280;48554;50.766;2.900;2022-08-03T08:07:32;101006.94;;;24.76;54.47
60854;BME280;48554;50.766;2.900;2022-08-03T08:09:52;101013.69;;;24.78;54.38
60854;BME280;48554;50.766;2.900;2022-08-03T08:12:12;101004.16;;;24.81;54.31
60854;BME280;48554;50.766;2.900;2022-08-03T08:14:33;101004.69;;;24.83;54.14
60854;BME280;48554;50.766;2.900;2022-08-03T08:16:53;101006.81;;;24.86;54.16
60854;BME280;48554;50.766;2.900;2022-08-03T08:19:13;101011.97;;;24.88;54.19
60854;BME280;48554;50.766;2.900;2022-08-03T08:21:33;101008.13;;;24.89;54.18
60854;BME280;48554;50.766;2.900;2022-08-03T08:23:53;101009.47;;;24.91;54.04
60854;BME280;48554;50.766;2.900;2022-08-03T08:26:14;101006.75;;;24.91;54.02
60854;BME280;48554;50.766;2.900;2022-08-03T08:28:34;101006.97;;;24.95;54.03
60854;BME280;48554;50.766;2.900;2022-08-03T08:30:54;100999.34;;;24.97;54.16
60854;BME280;48554;50.766;2.900;2022-08-03T08:33:14;101007.19;;;24.98;53.81
60854;BME280;48554;50.766;2.900;2022-08-03T08:35:34;100998.78;;;25.00;53.89
60854;BME280;48554;50.766;2.900;2022-08-03T08:37:55;100997.66;;;25.01;53.82
60854;BME280;48554;50.766;2.900;2022-08-03T08:40:15;100985.75;;;25.02;54.05
60854;BME280;48554;50.766;2.900;2022-08-03T08:42:39;100983.84;;;25.03;53.85
60854;BME280;48554;50.766;2.900;2022-08-03T08:44:59;100987.88;;;25.05;54.12
60854;BME280;48554;50.766;2.900;2022-08-03T08:47:29;100986.75;;;25.06;53.76
60854;BME280;48554;50.766;2.900;2022-08-03T08:49:52;100985.09;;;25.10;53.70
60854;BME280;48554;50.766;2.900;2022-08-03T08:52:13;100982.38;;;25.10;53.70
60854;BME280;48554;50.766;2.900;2022-08-03T08:54:33;100988.00;;;25.14;53.58
60854;BME280;48554;50.766;2.900;2022-08-03T08:56:55;100989.91;;;25.13;53.90
60854;BME280;48554;50.766;2.900;2022-08-03T08:59:16;100990.44;;;25.15;53.68
60854;BME280;48554;50.766;2.900;2022-08-03T09:01:36;100978.78;;;25.15;53.71
60854;BME280;48554;50.766;2.900;2022-08-03T09:03:56;100989.06;;;25.18;53.60
60854;BME280;48554;50.766;2.900;2022-08-03T09:06:16;100989.06;;;25.18;53.68
60854;BME280;48554;50.766;2.900;2022-08-03T09:08:36;100993.09;;;25.20;53.64
60854;BME280;48554;50.766;2.900;2022-08-03T09:10:57;100987.66;;;25.20;53.79
60854;BME280;48554;50.766;2.900;2022-08-03T09:13:17;100987.38;;;25.22;53.67
60854;BME280;48554;50.766;2.900;2022-08-03T09:15:38;100986.28;;;25.23;53.59
60854;BME280;48554;50.766;2.900;2022-08-03T09:17:59;100991.69;;;25.23;53.72
60854;BME280;48554;50.766;2.900;2022-08-03T09:20:20;100989.50;;;25.25;53.58
60854;BME280;48554;50.766;2.900;2022-08-03T09:25:34;100988.13;;;25.28;53.67
60854;BME280;48554;50.766;2.900;2022-08-03T09:28:02;100992.94;;;25.31;53.66
60854;BME280;48554;50.766;2.900;2022-08-03T09:30:22;100989.72;;;25.29;53.48
60854;BME280;48554;50.766;2.900;2022-08-03T09:32:43;100984.28;;;25.29;53.58
60854;BME280;48554;50.766;2.900;2022-08-03T09:35:03;100987.50;;;25.31;53.33
60854;BME280;48554;50.766;2.900;2022-08-03T09:37:23;100994.56;;;25.32;53.57
60854;BME280;48554;50.766;2.900;2022-08-03T09:39:44;100987.75;;;25.34;53.49
60854;BME280;48554;50.766;2.900;2022-08-03T09:42:05;100987.44;;;25.36;53.50
60854;BME280;48554;50.766;2.900;2022-08-03T09:44:32;100978.28;;;25.32;53.31
60854;BME280;48554;50.766;2.900;2022-08-03T09:46:53;100975.28;;;25.33;53.64
60854;BME280;48554;50.766;2.900;2022-08-03T09:49:14;100977.69;;;25.35;53.35
60854;BME280;48554;50.766;2.900;2022-08-03T09:51:34;100983.94;;;25.35;53.63
60854;BME280;48554;50.766;2.900;2022-08-03T09:53:55;100980.13;;;25.36;53.34
60854;BME280;48554;50.766;2.900;2022-08-03T09:56:15;100983.63;;;25.37;53.53
60854;BME280;48554;50.766;2.900;2022-08-03T09:58:43;100977.09;;;25.38;53.39
60854;BME280;48554;50.766;2.900;2022-08-03T10:01:04;100971.13;;;25.41;53.46
60854;BME280;48554;50.766;2.900;2022-08-03T10:03:25;100964.06;;;25.40;53.18
60854;BME280;48554;50.766;2.900;2022-08-03T10:05:46;100975.72;;;25.40;53.39
60854;BME280;48554;50.766;2.900;2022-08-03T10:08:12;100976.53;;;25.41;53.22
60854;BME280;48554;50.766;2.900;2022-08-03T10:10:40;100968.41;;;25.41;53.41
60854;BME280;48554;50.766;2.900;2022-08-03T10:13:01;100967.28;;;25.42;53.45
60854;BME280;48554;50.766;2.900;2022-08-03T10:15:22;100961.84;;;25.42;53.49
60854;BME280;48554;50.766;2.900;2022-08-03T10:17:42;100960.75;;;25.43;53.46
60854;BME280;48554;50.766;2.900;2022-08-03T10:20:03;100965.38;;;25.42;53.36
60854;BME280;48554;50.766;2.900;2022-08-03T10:22:27;100958.88;;;25.44;53.38
60854;BME280;48554;50.766;2.900;2022-08-03T10:24:51;100962.06;;;25.46;53.25
60854;BME280;48554;50.766;2.900;2022-08-03T10:27:11;100965.09;;;25.44;53.37
60854;BME280;48554;50.766;2.900;2022-08-03T10:29:41;100962.56;;;25.48;53.29
60854;BME280;48554;50.766;2.900;2022-08-03T10:32:08;100963.69;;;25.47;53.22
60854;BME280;48554;50.766;2.900;2022-08-03T10:34:32;100965.00;;;25.49;53.00
60854;BME280;48554;50.766;2.900;2022-08-03T10:36:54;100963.09;;;25.50;53.12
60854;BME280;48554;50.766;2.900;2022-08-03T10:39:17;100966.31;;;25.52;53.13
60854;BME280;48554;50.766;2.900;2022-08-03T10:41:38;100961.69;;;25.52;53.01
60854;BME280;48554;50.766;2.900;2022-08-03T10:44:07;100951.63;;;25.53;52.98
60854;BME280;48554;50.766;2.900;2022-08-03T10:46:27;100945.13;;;25.54;53.12
60854;BME280;48554;50.766;2.900;2022-08-03T10:48:47;100947.53;;;25.55;52.93
60854;BME280;48554;50.766;2.900;2022-08-03T10:51:08;100946.44;;;25.56;53.00
60854;BME280;48554;50.766;2.900;2022-08-03T10:55:55;100933.97;;;25.55;53.22
60854;BME280;48554;50.766;2.900;2022-08-03T10:58:36;100935.59;;;25.56;52.99
60854;BME280;48554;50.766;2.900;2022-08-03T11:00:55;100939.63;;;25.59;53.10
60854;BME280;48554;50.766;2.900;2022-08-03T11:03:15;100931.75;;;25.57;53.20
60854;BME280;48554;50.766;2.900;2022-08-03T11:05:36;100927.97;;;25.58;53.30
60854;BME280;48554;50.766;2.900;2022-08-03T11:10:36;100932.28;;;25.59;53.11
60854;BME280;48554;50.766;2.900;2022-08-03T11:13:04;100933.38;;;25.58;53.36
60854;BME280;48554;50.766;2.900;2022-08-03T11:15:31;100925.75;;;25.60;53.24
60854;BME280;48554;50.766;2.900;2022-08-03T11:18:08;100931.66;;;25.62;53.06
60854;BME280;48554;50.766;2.900;2022-08-03T11:23:09;100923.03;;;25.60;53.46
60854;BME280;48554;50.766;2.900;2022-08-03T11:25:29;100923.84;;;25.61;53.35
60854;BME280;48554;50.766;2.900;2022-08-03T11:28:25;100932.78;;;25.61;53.36
60854;BME280;48554;50.766;2.900;2022-08-03T11:30:45;100920.00;;;25.62;53.21
60854;BME280;48554;50.766;2.900;2022-08-03T11:33:05;100917.53;;;25.66;53.07
60854;BME280;48554;50.766;2.900;2022-08-03T11:35:29;100932.69;;;25.67;53.18
60854;BME280;48554;50.766;2.900;2022-08-03T11:40:31;100930.78;;;25.67;53.21
60854;BME280;48554;50.766;2.900;2022-08-03T11:42:51;100935.41;;;25.67;53.30
60854;BME280;48554;50.766;2.900;2022-08-03T11:45:12;100923.44;;;25.68;53.21
60854;BME280;48554;50.766;2.900;2022-08-03T11:47:34;100922.34;;;25.69;53.40
60854;BME280;48554;50.766;2.900;2022-08-03T11:49:56;100923.44;;;25.68;53.13
60854;BME280;48554;50.766;2.900;2022-08-03T11:52:16;100925.34;;;25.67;53.23
60854;BME280;48554;50.766;2.900;2022-08-03T11:54:37;100926.16;;;25.68;53.40
60854;BME280;48554;50.766;2.900;2022-08-03T11:56:57;100921.56;;;25.68;53.32
60854;BME280;48554;50.766;2.900;2022-08-03T11:59:18;100922.06;;;25.70;53.30
60854;BME280;48554;50.766;2.900;2022-08-03T12:01:50;100916.41;;;25.67;53.31
60854;BME280;48554;50.766;2.900;2022-08-03T12:04:10;100918.53;;;25.70;53.21
60854;BME280;48554;50.766;2.900;2022-08-03T12:06:30;100915.81;;;25.70;53.44
60854;BME280;48554;50.766;2.900;2022-08-03T12:08:50;100914.22;;;25.69;53.42
60854;BME280;48554;50.766;2.900;2022-08-03T12:11:11;100917.72;;;25.69;53.24
60854;BME280;48554;50.766;2.900;2022-08-03T12:13:36;100902.47;;;25.73;53.16
60854;BME280;48554;50.766;2.900;2022-08-03T12:15:56;100914.41;;;25.72;53.27
60854;BME280;48554;50.766;2.900;2022-08-03T12:18:17;100910.59;;;25.73;53.38
60854;BME280;48554;50.766;2.900;2022-08-03T12:20:38;100903.88;;;25.71;53.41
60854;BME280;48554;50.766;2.900;2022-08-03T12:23:02;100903.25;;;25.74;53.21
60854;BME280;48554;50.766;2.900;2022-08-03T12:25:23;100903.25;;;25.74;53.21
60854;BME280;48554;50.766;2.900;2022-08-03T12:27:43;100897.84;;;25.74;53.15
60854;BME280;48554;50.766;2.900;2022-08-03T12:30:04;100897.03;;;25.73;53.32
60854;BME280;48554;50.766;2.900;2022-08-03T12:32:24;100897.84;;;25.74;53.12
60854;BME280;48554;50.766;2.900;2022-08-03T12:34:45;100892.91;;;25.76;53.24
60854;BME280;48554;50.766;2.900;2022-08-03T12:37:05;100891.28;;;25.75;53.06
60854;BME280;48554;50.766;2.900;2022-08-03T12:39:26;100893.44;;;25.78;53.24
60854;BME280;48554;50.766;2.900;2022-08-03T12:41:51;100878.22;;;25.77;53.27
60854;BME280;48554;50.766;2.900;2022-08-03T12:44:11;100880.16;;;25.76;53.31
60854;BME280;48554;50.766;2.900;2022-08-03T12:51:18;100884.69;;;25.81;53.07
60854;BME280;48554;50.766;2.900;2022-08-03T12:53:38;100877.34;;;25.81;52.99